Time;durP1;ratioP1;P1;durP2;ratioP2;P2;SDS_P1;SDS_P2;PMS_P1;PMS_P2;Temp;Humidity;BMP_temperature;BMP_pressure;BME280_temperature;BME280_humidity;BME280_pressure;Samples;Min_cycle;Max_cycle;Signal;HPM_P1;HPM_P2
2020/12/06 00:01:28;;;;;;;18.60;8.23;;;4.30;99.90;;;;;;4919057;29;20222;-76
2020/12/06 00:03:56;;;;;;;21.65;10.88;;;4.30;99.90;;;;;;4920481;29;20276;-76
2020/12/06 00:06:24;;;;;;;18.00;8.73;;;4.30;99.90;;;;;;4919476;29;20209;-76
2020/12/06 00:08:51;;;;;;;11.75;9.45;;;4.20;99.90;;;;;;4918552;29;20178;-76
2020/12/06 00:11:19;;;;;;;12.32;8.55;;;4.20;99.90;;;;;;4918654;29;20519;-76
2020/12/06 00:13:46;;;;;;;8.40;7.32;;;4.10;99.90;;;;;;4919016;29;20192;-76
2020/12/06 00:16:15;;;;;;;15.88;9.77;;;4.10;99.90;;;;;;4918166;29;20214;-76
2020/12/06 00:18:47;;;;;;;12.65;8.68;;;4.10;99.90;;;;;;4918022;29;20198;-76
2020/12/06 00:21:16;;;;;;;13.27;8.02;;;4.00;99.90;;;;;;4919029;29;20193;-76
2020/12/06 00:23:47;;;;;;;13.27;11.70;;;4.00;99.90;;;;;;4919427;29;20185;-76
2020/12/06 00:26:19;;;;;;;12.13;9.15;;;3.90;99.90;;;;;;4918315;29;20253;-76
2020/12/06 00:28:46;;;;;;;13.98;10.20;;;3.90;99.90;;;;;;4918673;29;20580;-76
2020/12/06 00:31:14;;;;;;;13.05;10.27;;;3.90;99.90;;;;;;4918556;29;20233;-76
2020/12/06 00:33:41;;;;;;;15.05;10.25;;;3.80;99.90;;;;;;4918237;29;20186;-76
2020/12/06 00:36:10;;;;;;;13.15;9.68;;;3.80;99.90;;;;;;4918040;29;20217;-76
2020/12/06 00:38:37;;;;;;;14.02;8.55;;;3.80;99.90;;;;;;4917965;29;20185;-76
2020/12/06 00:41:05;;;;;;;13.55;9.98;;;3.70;99.90;;;;;;4918044;29;20190;-76
2020/12/06 00:43:33;;;;;;;10.13;9.13;;;3.70;99.90;;;;;;4918812;29;20177;-76
2020/12/06 00:46:00;;;;;;;17.63;10.45;;;3.70;99.90;;;;;;4918100;29;20205;-76
2020/12/06 00:48:28;;;;;;;11.57;7.57;;;3.70;99.90;;;;;;4917205;29;20288;-76
2020/12/06 00:50:55;;;;;;;12.50;8.70;;;3.70;99.90;;;;;;4916802;29;20257;-76
2020/12/06 00:53:23;;;;;;;16.73;9.80;;;3.70;99.90;;;;;;4916369;29;20200;-76
2020/12/06 00:55:51;;;;;;;16.08;9.63;;;3.70;99.90;;;;;;4917438;29;20208;-76
2020/12/06 00:58:19;;;;;;;15.65;11.52;;;3.70;99.90;;;;;;4917432;29;20221;-76
2020/12/06 01:00:46;;;;;;;12.48;10.20;;;3.70;99.90;;;;;;4917403;29;20174;-75
2020/12/06 01:03:13;;;;;;;16.58;11.80;;;3.60;99.90;;;;;;4917071;29;20214;-76
2020/12/06 01:05:41;;;;;;;13.82;10.73;;;3.60;99.90;;;;;;4917140;29;20213;-76
2020/12/06 01:08:08;;;;;;;14.07;9.88;;;3.50;99.90;;;;;;4916932;29;20181;-76
2020/12/06 01:10:35;;;;;;;12.77;8.75;;;3.40;99.90;;;;;;4916694;29;20736;-76
2020/12/06 01:13:02;;;;;;;17.25;9.45;;;3.40;99.90;;;;;;4916217;29;20189;-76
2020/12/06 01:15:31;;;;;;;16.95;10.95;;;3.40;99.90;;;;;;4916866;29;20226;-77
2020/12/06 01:17:58;;;;;;;14.25;9.23;;;3.40;99.90;;;;;;4917182;29;20197;-76
2020/12/06 01:20:25;;;;;;;34.05;12.07;;;3.40;99.90;;;;;;4917090;29;20174;-77
2020/12/06 01:22:52;;;;;;;16.67;11.60;;;3.40;99.90;;;;;;4917061;29;20189;-77
2020/12/06 01:25:19;;;;;;;23.58;9.25;;;3.40;99.90;;;;;;4916808;29;20248;-76
2020/12/06 01:27:46;;;;;;;13.32;10.65;;;3.40;99.90;;;;;;4916968;29;20182;-77
2020/12/06 01:30:13;;;;;;;18.85;11.85;;;3.50;99.90;;;;;;4915523;29;20210;-76
2020/12/06 01:32:41;;;;;;;19.35;12.75;;;3.50;99.90;;;;;;4917058;29;20241;-76
2020/12/06 01:35:08;;;;;;;14.95;10.85;;;3.60;99.90;;;;;;4915673;29;20245;-76
2020/12/06 01:37:35;;;;;;;28.92;13.10;;;3.70;99.90;;;;;;4916534;29;20265;-75
2020/12/06 01:40:03;;;;;;;16.48;8.10;;;3.80;99.90;;;;;;4916264;29;20202;-75
2020/12/06 01:42:30;;;;;;;17.05;11.75;;;3.90;99.90;;;;;;4915170;29;20226;-76
2020/12/06 01:44:58;;;;;;;23.75;13.88;;;4.00;99.90;;;;;;4916187;29;20225;-76
2020/12/06 01:47:25;;;;;;;15.02;10.13;;;4.10;99.90;;;;;;4916112;29;20217;-76
2020/12/06 01:49:54;;;;;;;23.65;13.10;;;4.10;99.90;;;;;;4919216;29;20209;-76
2020/12/06 01:52:21;;;;;;;13.98;10.60;;;4.20;99.90;;;;;;4920278;29;20224;-76
2020/12/06 01:54:49;;;;;;;18.73;12.27;;;4.30;99.90;;;;;;4920071;29;20220;-75
2020/12/06 01:57:16;;;;;;;21.35;12.70;;;4.40;99.90;;;;;;4920690;29;20276;-77
2020/12/06 01:59:43;;;;;;;20.50;15.60;;;4.50;99.90;;;;;;4920811;29;20650;-76
2020/12/06 02:02:10;;;;;;;19.13;13.32;;;4.60;99.90;;;;;;4920390;29;20189;-75
2020/12/06 02:04:37;;;;;;;17.60;12.80;;;4.70;99.90;;;;;;4920536;29;20182;-76
2020/12/06 02:07:05;;;;;;;25.38;12.98;;;4.70;99.90;;;;;;4920547;29;20677;-76
2020/12/06 02:09:32;;;;;;;19.13;12.65;;;4.80;99.90;;;;;;4920154;29;20194;-75
2020/12/06 02:12:07;;;;;;;14.60;11.70;;;4.80;99.90;;;;;;4920046;29;20608;-75
2020/12/06 02:14:35;;;;;;;18.25;11.75;;;4.90;99.90;;;;;;4919644;29;20186;-76
2020/12/06 02:17:02;;;;;;;25.30;12.45;;;4.90;99.90;;;;;;4919821;29;20210;-76
2020/12/06 02:19:29;;;;;;;22.23;12.65;;;4.90;99.90;;;;;;4918655;29;20224;-76
2020/12/06 02:21:58;;;;;;;20.70;12.35;;;5.00;99.90;;;;;;4918534;29;20223;-75
2020/12/06 02:24:25;;;;;;;20.38;13.02;;;5.10;99.90;;;;;;4920215;29;20204;-76
2020/12/06 02:26:52;;;;;;;23.50;13.82;;;5.10;99.90;;;;;;4920573;29;20229;-75
2020/12/06 02:29:20;;;;;;;22.45;14.05;;;5.20;99.90;;;;;;4921113;29;20386;-76
2020/12/06 02:31:48;;;;;;;20.92;12.48;;;5.20;99.90;;;;;;4920316;29;20182;-76
2020/12/06 02:34:15;;;;;;;21.75;13.00;;;5.30;99.90;;;;;;4924596;29;20256;-76
2020/12/06 02:36:42;;;;;;;16.05;10.95;;;5.30;99.90;;;;;;4935973;29;20194;-76
2020/12/06 02:39:12;;;;;;;20.13;13.07;;;5.30;99.90;;;;;;4938464;29;20157;-76
2020/12/06 02:41:41;;;;;;;22.25;13.13;;;5.40;99.90;;;;;;4940630;29;20198;-76
2020/12/06 02:44:10;;;;;;;17.48;10.93;;;5.30;99.90;;;;;;4940981;29;20193;-75
2020/12/06 02:46:38;;;;;;;19.85;10.85;;;5.40;99.90;;;;;;4943401;29;20209;-75
2020/12/06 02:49:05;;;;;;;20.20;10.80;;;5.50;99.90;;;;;;4942293;29;20182;-76
2020/12/06 02:51:33;;;;;;;23.00;13.75;;;5.50;99.90;;;;;;4941412;29;20221;-76
2020/12/06 02:54:00;;;;;;;18.25;11.00;;;5.50;99.90;;;;;;4940676;29;20258;-76
2020/12/06 02:56:28;;;;;;;14.75;12.02;;;5.50;99.90;;;;;;4940785;29;20217;-76
2020/12/06 02:58:55;;;;;;;14.18;9.65;;;5.50;99.90;;;;;;4940186;29;20190;-75
2020/12/06 03:01:27;;;;;;;16.77;11.65;;;5.50;99.90;;;;;;4941076;29;20182;-75
2020/12/06 03:03:54;;;;;;;11.95;9.55;;;5.50;99.90;;;;;;4940701;29;20197;-75
2020/12/06 03:06:21;;;;;;;15.05;9.52;;;5.60;99.90;;;;;;4940170;29;20213;-76
2020/12/06 03:08:48;;;;;;;15.55;10.27;;;5.60;99.90;;;;;;4936604;29;20186;-76
2020/12/06 03:11:16;;;;;;;18.73;14.55;;;5.60;99.90;;;;;;4923304;29;20417;-76
2020/12/06 03:13:44;;;;;;;13.35;10.90;;;5.60;99.90;;;;;;4919616;29;20178;-76
2020/12/06 03:16:11;;;;;;;24.48;12.77;;;5.60;99.90;;;;;;4919120;29;20262;-76
2020/12/06 03:18:38;;;;;;;13.77;11.18;;;5.60;99.90;;;;;;4919567;29;20178;-75
2020/12/06 03:21:05;;;;;;;17.98;12.70;;;5.60;99.90;;;;;;4919583;29;20257;-76
2020/12/06 03:23:32;;;;;;;19.30;11.15;;;5.60;99.90;;;;;;4919318;29;20594;-76
2020/12/06 03:25:59;;;;;;;19.08;9.05;;;5.60;99.90;;;;;;4917758;29;20313;-77
2020/12/06 03:28:27;;;;;;;19.52;12.25;;;5.60;99.90;;;;;;4918399;29;20181;-75
2020/12/06 03:30:55;;;;;;;20.25;11.13;;;5.60;99.90;;;;;;4918397;29;20205;-75
2020/12/06 03:33:22;;;;;;;18.40;9.68;;;5.60;99.90;;;;;;4918434;29;20188;-76
2020/12/06 03:35:49;;;;;;;16.20;11.43;;;5.50;99.90;;;;;;4917895;29;20241;-76
2020/12/06 03:38:16;;;;;;;22.98;11.60;;;5.60;99.90;;;;;;4917029;29;20201;-76
2020/12/06 03:40:43;;;;;;;15.80;11.02;;;5.60;99.90;;;;;;4918407;29;20523;-75
2020/12/06 03:43:10;;;;;;;14.63;10.05;;;5.70;99.90;;;;;;4918112;29;20182;-75
2020/12/06 03:45:37;;;;;;;12.07;9.95;;;5.70;99.90;;;;;;4917734;29;20247;-75
2020/12/06 03:48:05;;;;;;;17.02;9.77;;;5.80;99.90;;;;;;4917965;29;20178;-75
2020/12/06 03:50:32;;;;;;;17.33;10.77;;;5.80;99.90;;;;;;4917951;29;20202;-75
2020/12/06 03:52:59;;;;;;;21.55;11.20;;;5.90;99.90;;;;;;4918219;29;20653;-76
2020/12/06 03:55:27;;;;;;;13.85;9.93;;;5.90;99.90;;;;;;4917878;29;20213;-76
2020/12/06 03:57:54;;;;;;;15.18;11.20;;;6.00;99.90;;;;;;4917895;29;20672;-76
2020/12/06 04:00:21;;;;;;;15.73;11.55;;;6.00;99.90;;;;;;4917645;29;20178;-76
2020/12/06 04:02:50;;;;;;;18.65;11.77;;;6.00;99.90;;;;;;4917773;29;20185;-76
2020/12/06 04:05:20;;;;;;;17.98;9.25;;;6.00;99.90;;;;;;4917665;29;20700;-75
2020/12/06 04:07:48;;;;;;;17.63;10.18;;;6.00;99.90;;;;;;4917537;29;20185;-77
2020/12/06 04:10:16;;;;;;;18.83;11.48;;;6.00;99.90;;;;;;4917305;29;20228;-75
2020/12/06 04:12:43;;;;;;;13.15;9.30;;;6.00;99.90;;;;;;4916868;29;20203;-76
2020/12/06 04:15:10;;;;;;;13.52;10.20;;;6.10;99.90;;;;;;4917179;29;20269;-76
2020/12/06 04:17:38;;;;;;;15.60;11.55;;;6.10;99.90;;;;;;4917416;29;20182;-75
2020/12/06 04:20:05;;;;;;;14.20;11.25;;;6.10;99.90;;;;;;4917058;29;20181;-76
2020/12/06 04:22:33;;;;;;;12.85;8.25;;;6.00;99.90;;;;;;4917647;29;20554;-76
2020/12/06 04:25:00;;;;;;;17.30;10.75;;;6.10;99.90;;;;;;4915793;29;20636;-75
2020/12/06 04:27:28;;;;;;;14.93;10.05;;;6.00;99.90;;;;;;4917072;29;20182;-75
2020/12/06 04:29:55;;;;;;;13.85;10.43;;;6.00;99.90;;;;;;4916990;29;20209;-76
2020/12/06 04:32:22;;;;;;;17.77;10.60;;;6.00;99.90;;;;;;4917225;29;20292;-76
2020/12/06 04:34:49;;;;;;;18.02;13.13;;;6.00;99.90;;;;;;4916934;29;20808;-76
2020/12/06 04:37:16;;;;;;;10.65;8.40;;;5.90;99.90;;;;;;4917120;29;20201;-76
2020/12/06 04:39:44;;;;;;;16.52;10.80;;;6.00;99.90;;;;;;4916889;29;20272;-75
2020/12/06 04:42:12;;;;;;;16.85;10.45;;;5.90;99.90;;;;;;4917095;29;20696;-75
2020/12/06 04:44:39;;;;;;;16.15;11.18;;;5.90;99.90;;;;;;4916968;29;20213;-76
2020/12/06 04:47:11;;;;;;;13.82;8.70;;;5.90;99.90;;;;;;4917011;29;20182;-75
2020/12/06 04:49:46;;;;;;;15.23;9.60;;;5.80;99.90;;;;;;4917582;29;20664;-75
2020/12/06 04:52:17;;;;;;;14.85;10.85;;;5.80;99.90;;;;;;4917362;29;20185;-75
2020/12/06 04:54:51;;;;;;;17.92;12.18;;;5.80;99.90;;;;;;4917828;29;20272;-76
2020/12/06 04:57:19;;;;;;;19.73;11.45;;;5.80;99.90;;;;;;4917545;29;20186;-76
2020/12/06 04:59:47;;;;;;;11.73;9.10;;;5.90;99.90;;;;;;4917384;29;20170;-75
2020/12/06 05:02:20;;;;;;;13.43;8.35;;;5.90;99.90;;;;;;4916893;29;20184;-75
2020/12/06 05:04:48;;;;;;;15.50;11.95;;;5.90;99.90;;;;;;4916571;29;20228;-76
2020/12/06 05:07:18;;;;;;;16.35;10.80;;;5.90;99.90;;;;;;4917284;29;20194;-76
2020/12/06 05:09:48;;;;;;;15.68;10.18;;;5.90;99.90;;;;;;4916194;29;20632;-76
2020/12/06 05:12:16;;;;;;;12.75;8.38;;;5.90;99.90;;;;;;4914989;29;20248;-75
2020/12/06 05:14:43;;;;;;;21.05;13.27;;;6.00;99.90;;;;;;4916409;29;20201;-75
2020/12/06 05:17:10;;;;;;;19.98;12.35;;;6.00;99.90;;;;;;4916442;29;20196;-75
2020/12/06 05:19:38;;;;;;;10.55;9.40;;;6.00;99.90;;;;;;4918201;29;20649;-76
2020/12/06 05:22:05;;;;;;;13.63;9.45;;;6.00;99.90;;;;;;4917577;29;20741;-76
2020/12/06 05:24:33;;;;;;;17.13;10.15;;;5.90;99.90;;;;;;4915975;29;20181;-76
2020/12/06 05:27:01;;;;;;;14.57;10.80;;;5.90;99.90;;;;;;4986327;23;20723;-78
2020/12/06 05:29:29;;;;;;;16.67;11.95;;;5.90;99.90;;;;;;4965316;28;20263;-79
2020/12/06 05:31:57;;;;;;;16.38;9.07;;;5.90;99.90;;;;;;4960568;28;20214;-79
2020/12/06 05:34:25;;;;;;;17.75;10.88;;;5.90;99.90;;;;;;4959017;29;20200;-78
2020/12/06 05:36:52;;;;;;;13.40;8.68;;;5.90;99.90;;;;;;4961302;28;20712;-78
2020/12/06 05:39:22;;;;;;;14.48;11.25;;;6.00;99.90;;;;;;4977261;28;20242;-78
2020/12/06 05:41:49;;;;;;;12.32;10.75;;;6.00;99.90;;;;;;4960095;29;20188;-79
2020/12/06 05:44:21;;;;;;;13.70;10.13;;;6.00;99.90;;;;;;4970535;29;20184;-78
2020/12/06 05:46:51;;;;;;;21.30;9.07;;;6.00;99.90;;;;;;4970469;28;20211;-78
2020/12/06 05:49:19;;;;;;;24.20;10.60;;;6.10;99.90;;;;;;4962855;28;20211;-79
2020/12/06 05:51:54;;;;;;;13.57;9.05;;;6.10;99.90;;;;;;4961186;28;20204;-79
2020/12/06 05:54:24;;;;;;;15.15;10.55;;;6.10;99.90;;;;;;4960674;28;20266;-79
2020/12/06 05:56:53;;;;;;;19.20;12.13;;;6.10;99.90;;;;;;4958436;28;20216;-80
2020/12/06 05:59:22;;;;;;;13.30;9.73;;;6.10;99.90;;;;;;4958964;28;20227;-78
2020/12/06 06:01:52;;;;;;;15.52;9.40;;;6.10;99.90;;;;;;4960795;29;20184;-79
2020/12/06 06:04:21;;;;;;;15.20;8.02;;;6.10;99.90;;;;;;4960560;28;20208;-79
2020/12/06 06:06:51;;;;;;;15.90;10.50;;;6.10;99.90;;;;;;4972660;28;20215;-78
2020/12/06 06:09:20;;;;;;;13.98;9.25;;;6.10;99.90;;;;;;4979457;28;20195;-79
2020/12/06 06:12:13;;;;;;;14.98;9.25;;;6.20;99.90;;;;;;4982113;28;20690;-81
2020/12/06 06:14:42;;;;;;;11.00;7.93;;;6.30;99.90;;;;;;4980326;28;20204;-78
2020/12/06 06:17:13;;;;;;;14.43;9.95;;;6.20;99.90;;;;;;4980914;28;20207;-80
2020/12/06 06:19:40;;;;;;;12.82;10.15;;;6.20;99.90;;;;;;4979470;28;20183;-79
2020/12/06 06:22:08;;;;;;;28.38;11.30;;;6.20;99.90;;;;;;4979775;28;20179;-79
2020/12/06 06:24:37;;;;;;;17.30;8.63;;;6.20;99.90;;;;;;4980527;28;20216;-80
2020/12/06 06:27:05;;;;;;;17.42;11.25;;;6.20;99.90;;;;;;4978950;28;20361;-79
2020/12/06 06:29:33;;;;;;;12.52;8.95;;;6.10;99.90;;;;;;4978810;28;20206;-79
2020/12/06 06:32:01;;;;;;;18.23;11.18;;;6.10;99.90;;;;;;4980867;28;20187;-78
2020/12/06 06:34:31;;;;;;;16.98;9.23;;;6.10;99.90;;;;;;4982956;28;20558;-80
2020/12/06 06:36:59;;;;;;;13.93;9.63;;;6.10;99.90;;;;;;4983749;28;20215;-78
2020/12/06 06:39:27;;;;;;;14.80;10.77;;;6.20;99.90;;;;;;4986051;28;20226;-78
2020/12/06 06:41:58;;;;;;;18.35;10.65;;;6.20;99.90;;;;;;4995916;28;20176;-78
2020/12/06 06:44:27;;;;;;;18.73;9.75;;;6.20;99.90;;;;;;4993499;28;20274;-79
2020/12/06 06:47:02;;;;;;;12.85;8.35;;;6.20;99.90;;;;;;4996041;28;20212;-79
2020/12/06 06:49:29;;;;;;;18.60;10.43;;;6.20;99.90;;;;;;4994813;28;20673;-79
2020/12/06 06:51:58;;;;;;;14.05;9.75;;;6.20;99.90;;;;;;4984864;28;20282;-78
2020/12/06 06:54:28;;;;;;;14.07;9.80;;;6.20;99.90;;;;;;4987319;28;20183;-79
2020/12/06 06:56:56;;;;;;;11.43;10.25;;;6.30;99.90;;;;;;4993624;28;20231;-79
2020/12/06 06:59:36;;;;;;;10.00;8.80;;;6.20;99.90;;;;;;4995818;28;20179;-78
2020/12/06 07:02:26;;;;;;;13.27;9.10;;;6.30;99.90;;;;;;4994504;28;20179;-78
2020/12/06 07:04:54;;;;;;;17.63;10.63;;;6.30;99.90;;;;;;4986658;28;20175;-78
2020/12/06 07:07:45;;;;;;;14.55;10.43;;;6.30;99.90;;;;;;4985983;28;20290;-77
2020/12/06 07:10:14;;;;;;;20.15;10.30;;;6.40;99.90;;;;;;4965737;28;20219;-78
2020/12/06 07:12:47;;;;;;;11.38;8.35;;;6.40;99.90;;;;;;4983361;28;20187;-78
2020/12/06 07:15:16;;;;;;;11.38;7.78;;;6.40;99.90;;;;;;4991357;28;20291;-78
2020/12/06 07:17:44;;;;;;;12.07;8.05;;;6.40;99.90;;;;;;4980970;28;20196;-79
2020/12/06 07:20:13;;;;;;;18.77;10.82;;;6.50;99.90;;;;;;4942378;29;20260;-79
2020/12/06 07:22:40;;;;;;;16.08;9.73;;;6.50;99.90;;;;;;4940899;29;20188;-77
2020/12/06 07:25:09;;;;;;;12.82;10.35;;;6.50;99.90;;;;;;4939566;29;20228;-77
2020/12/06 07:27:38;;;;;;;13.07;8.80;;;6.50;99.90;;;;;;4957216;29;20694;-79
2020/12/06 07:30:07;;;;;;;12.98;7.70;;;6.50;99.90;;;;;;4965334;29;20258;-78
2020/12/06 07:32:35;;;;;;;18.55;9.85;;;6.50;99.90;;;;;;4965583;29;20283;-78
2020/12/06 07:35:04;;;;;;;15.95;11.32;;;6.50;99.90;;;;;;4965937;28;20199;-78
2020/12/06 07:37:31;;;;;;;11.52;8.93;;;6.60;99.90;;;;;;4967127;28;20192;-79
2020/12/06 07:39:58;;;;;;;12.82;9.48;;;6.60;99.90;;;;;;4968619;28;20711;-78
2020/12/06 07:42:28;;;;;;;13.85;8.82;;;6.60;99.90;;;;;;4970647;29;20188;-77
2020/12/06 07:44:57;;;;;;;10.68;8.00;;;6.70;99.90;;;;;;4970997;28;20204;-78
2020/12/06 07:47:25;;;;;;;16.13;9.50;;;6.70;99.90;;;;;;4973786;28;20188;-78
2020/12/06 07:49:54;;;;;;;10.68;7.70;;;6.70;99.90;;;;;;4963490;28;20172;-77
2020/12/06 07:52:24;;;;;;;14.75;10.05;;;6.70;99.90;;;;;;4959943;29;20187;-78
2020/12/06 07:54:55;;;;;;;15.18;8.20;;;6.70;99.90;;;;;;4959587;28;20193;-78
2020/12/06 07:57:29;;;;;;;14.00;7.90;;;6.80;99.90;;;;;;4962432;28;20184;-78
2020/12/06 07:59:58;;;;;;;13.00;9.15;;;6.80;99.90;;;;;;4964483;28;20168;-78
2020/12/06 08:02:31;;;;;;;11.35;7.68;;;6.90;99.90;;;;;;4972288;28;20188;-78
2020/12/06 08:04:59;;;;;;;10.52;8.93;;;7.00;99.90;;;;;;4967916;28;20255;-78
2020/12/06 08:07:36;;;;;;;9.55;7.68;;;7.10;99.90;;;;;;4956146;28;20193;-78
2020/12/06 08:10:04;;;;;;;11.77;7.97;;;7.10;99.90;;;;;;4961772;29;20254;-78
2020/12/06 08:12:34;;;;;;;10.73;7.82;;;7.20;99.90;;;;;;4957782;28;20196;-84
2020/12/06 08:15:04;;;;;;;12.80;7.70;;;7.30;99.90;;;;;;4962980;29;20192;-84
2020/12/06 08:17:50;;;;;;;10.73;8.25;;;7.30;99.90;;;;;;4965176;28;20199;-84
2020/12/06 08:20:20;;;;;;;12.00;7.38;;;7.40;99.90;;;;;;4959090;28;20705;-82
2020/12/06 08:22:51;;;;;;;9.27;7.43;;;7.50;99.90;;;;;;4954038;29;20200;-83
2020/12/06 08:25:20;;;;;;;12.68;8.95;;;7.50;99.90;;;;;;4966849;28;20228;-82
2020/12/06 08:27:49;;;;;;;11.02;7.53;;;7.60;99.90;;;;;;4945250;29;20201;-85
2020/12/06 08:30:17;;;;;;;17.75;9.15;;;7.60;99.90;;;;;;4958709;28;20571;-84
2020/12/06 08:32:52;;;;;;;16.13;8.77;;;7.70;99.90;;;;;;4944542;29;20379;-83
2020/12/06 08:35:20;;;;;;;11.82;8.25;;;7.70;99.90;;;;;;4945728;29;20220;-83
2020/12/06 08:37:47;;;;;;;10.85;8.50;;;7.70;99.90;;;;;;4956151;29;20230;-80
2020/12/06 08:40:15;;;;;;;9.18;7.55;;;7.80;99.90;;;;;;4956948;28;20212;-78
2020/12/06 08:42:42;;;;;;;9.82;7.35;;;7.80;99.90;;;;;;4958765;29;20287;-77
2020/12/06 08:45:10;;;;;;;13.30;9.25;;;7.90;99.90;;;;;;4956526;28;20560;-80
2020/12/06 08:47:42;;;;;;;10.88;7.43;;;7.90;99.90;;;;;;4958995;29;20176;-77
2020/12/06 08:50:12;;;;;;;13.90;8.85;;;7.90;99.90;;;;;;4957902;28;20184;-78
2020/12/06 08:52:40;;;;;;;15.00;8.35;;;7.90;99.90;;;;;;4956860;29;20206;-79
2020/12/06 08:55:32;;;;;;;11.35;8.40;;;7.90;99.90;;;;;;4959028;29;20632;-78
2020/12/06 08:57:59;;;;;;;7.75;6.25;;;7.90;99.90;;;;;;4959840;28;20192;-79
2020/12/06 09:00:29;;;;;;;16.05;7.65;;;7.90;99.90;;;;;;4964526;29;20199;-79
2020/12/06 09:02:59;;;;;;;11.15;7.40;;;7.90;99.90;;;;;;4961812;28;20188;-78
2020/12/06 09:05:28;;;;;;;9.73;6.72;;;8.00;99.90;;;;;;4959698;28;20267;-77
2020/12/06 09:07:56;;;;;;;10.93;8.80;;;8.00;99.90;;;;;;4957677;29;20632;-79
2020/12/06 09:10:24;;;;;;;11.75;7.53;;;8.00;99.90;;;;;;4960069;28;20266;-78
2020/12/06 09:12:52;;;;;;;10.13;7.22;;;8.10;99.90;;;;;;4957340;28;20184;-78
2020/12/06 09:15:19;;;;;;;14.07;8.55;;;8.10;99.90;;;;;;4956514;28;20247;-77
2020/12/06 09:17:47;;;;;;;8.07;7.07;;;8.20;99.90;;;;;;4958840;28;20203;-77
2020/12/06 09:20:14;;;;;;;10.95;6.80;;;8.20;99.90;;;;;;4957196;29;20195;-78
2020/12/06 09:22:41;;;;;;;8.68;6.15;;;8.20;99.90;;;;;;4957984;28;20187;-79
2020/12/06 09:25:08;;;;;;;9.50;7.00;;;8.20;99.90;;;;;;4956331;28;20220;-78
2020/12/06 09:27:36;;;;;;;10.32;7.78;;;8.30;99.90;;;;;;4959032;28;20639;-80
2020/12/06 09:30:04;;;;;;;12.10;7.90;;;8.40;99.90;;;;;;4958461;28;20620;-79
2020/12/06 09:32:32;;;;;;;11.48;6.55;;;8.40;99.90;;;;;;4959027;28;20212;-79
2020/12/06 09:34:59;;;;;;;8.00;6.10;;;8.50;99.90;;;;;;4958241;28;20184;-78
2020/12/06 09:37:26;;;;;;;12.45;7.78;;;8.60;99.90;;;;;;4958958;28;20726;-78
2020/12/06 09:39:54;;;;;;;10.30;6.70;;;8.70;99.90;;;;;;4957016;29;20204;-78
2020/12/06 09:42:22;;;;;;;18.27;7.57;;;8.70;99.90;;;;;;4958706;28;20176;-78
2020/12/06 09:44:49;;;;;;;8.20;6.90;;;8.70;99.90;;;;;;4960508;29;20204;-80
2020/12/06 09:47:18;;;;;;;9.77;7.70;;;8.80;99.90;;;;;;4959887;28;20294;-78
2020/12/06 09:49:45;;;;;;;9.00;7.60;;;8.80;99.90;;;;;;4962620;28;20310;-79
2020/12/06 09:52:12;;;;;;;13.60;8.25;;;8.90;99.90;;;;;;4961503;29;20251;-80
2020/12/06 09:54:39;;;;;;;9.07;7.60;;;9.00;99.90;;;;;;4959895;29;20200;-78
2020/12/06 09:57:06;;;;;;;11.80;7.72;;;9.00;99.90;;;;;;4959643;29;20232;-77
2020/12/06 09:59:33;;;;;;;8.93;7.78;;;9.00;99.90;;;;;;4964795;28;20196;-79
2020/12/06 10:02:02;;;;;;;10.30;7.05;;;9.10;99.90;;;;;;4966021;29;20192;-79
2020/12/06 10:04:30;;;;;;;13.20;8.68;;;9.10;99.90;;;;;;4962038;28;20278;-79
2020/12/06 10:06:59;;;;;;;12.38;7.32;;;9.10;99.90;;;;;;4960425;29;20204;-80
2020/12/06 10:09:26;;;;;;;8.68;6.30;;;9.20;99.90;;;;;;4961222;28;20180;-79
2020/12/06 10:11:53;;;;;;;11.57;8.10;;;9.20;99.90;;;;;;4963723;28;20208;-79
2020/12/06 10:14:21;;;;;;;13.10;9.13;;;9.20;99.90;;;;;;4963823;28;20210;-79
2020/12/06 10:16:48;;;;;;;10.85;7.05;;;9.30;99.90;;;;;;4961436;29;20231;-79
2020/12/06 10:19:16;;;;;;;14.38;6.50;;;9.40;99.90;;;;;;4965201;28;20200;-80
2020/12/06 10:21:44;;;;;;;9.35;7.25;;;9.50;99.90;;;;;;4964405;29;20683;-78
2020/12/06 10:24:12;;;;;;;14.32;7.15;;;9.60;99.90;;;;;;4971468;29;20247;-78
2020/12/06 10:26:39;;;;;;;8.52;6.95;;;9.60;99.90;;;;;;4968386;29;20219;-77
2020/12/06 10:29:07;;;;;;;9.65;7.07;;;9.70;99.90;;;;;;4966995;29;20231;-79
2020/12/06 10:31:34;;;;;;;9.50;8.10;;;9.80;99.90;;;;;;4967434;28;20216;-77
2020/12/06 10:34:02;;;;;;;14.95;8.32;;;9.90;99.90;;;;;;4967604;28;20858;-79
2020/12/06 10:36:30;;;;;;;7.77;6.27;;;9.90;99.90;;;;;;4966449;29;20208;-80
2020/12/06 10:39:02;;;;;;;10.37;6.83;;;9.90;99.90;;;;;;4972602;29;20406;-78
2020/12/06 10:41:30;;;;;;;6.97;5.47;;;9.90;99.90;;;;;;4974048;29;20408;-77
2020/12/06 10:43:57;;;;;;;8.80;6.25;;;10.00;99.90;;;;;;4974942;29;20192;-77
2020/12/06 10:46:27;;;;;;;13.18;7.85;;;10.00;99.90;;;;;;4973706;29;20295;-77
2020/12/06 10:48:56;;;;;;;7.57;6.60;;;10.00;99.90;;;;;;4974109;29;20180;-77
2020/12/06 10:51:24;;;;;;;11.67;7.40;;;10.10;99.90;;;;;;4974643;29;20264;-78
2020/12/06 10:53:52;;;;;;;9.60;7.28;;;10.10;99.90;;;;;;4976031;29;20459;-78
2020/12/06 10:56:21;;;;;;;12.10;7.90;;;10.20;99.90;;;;;;4962765;29;20263;-80
2020/12/06 10:58:48;;;;;;;6.40;5.77;;;10.20;99.90;;;;;;4964108;28;20181;-78
2020/12/06 11:01:21;;;;;;;8.03;6.30;;;10.30;99.90;;;;;;4962496;29;20446;-79
2020/12/06 11:03:51;;;;;;;11.90;7.37;;;10.30;99.90;;;;;;4963838;29;20432;-78
2020/12/06 11:06:20;;;;;;;13.97;7.87;;;10.40;99.90;;;;;;4961581;29;20441;-79
2020/12/06 11:08:47;;;;;;;11.47;7.50;;;10.40;99.90;;;;;;4981363;28;20422;-77
2020/12/06 11:11:15;;;;;;;7.60;6.73;;;10.50;99.90;;;;;;4965958;29;20454;-79
2020/12/06 11:13:49;;;;;;;9.73;7.73;;;10.50;99.90;;;;;;4960938;29;20415;-80
2020/12/06 11:16:19;;;;;;;9.63;6.40;;;10.60;99.90;;;;;;4963196;29;20458;-78
2020/12/06 11:18:47;;;;;;;7.93;6.30;;;10.60;99.90;;;;;;4963167;29;20776;-80
2020/12/06 11:21:18;;;;;;;9.73;7.00;;;10.70;99.90;;;;;;4962058;28;20403;-78
2020/12/06 11:23:47;;;;;;;11.90;8.03;;;10.70;99.90;;;;;;4961332;28;20399;-79
2020/12/06 11:26:16;;;;;;;6.63;5.70;;;10.70;99.90;;;;;;4973310;23;20467;-49
2020/12/06 11:28:45;;;;;;;13.53;6.80;;;10.70;99.90;;;;;;4942039;29;20431;-51
2020/12/06 11:31:14;;;;;;;6.90;5.30;;;10.80;99.90;;;;;;4953911;28;20436;-48
2020/12/06 11:33:42;;;;;;;11.50;7.43;;;10.80;99.90;;;;;;4936003;29;20490;-46
2020/12/06 11:36:11;;;;;;;12.17;8.67;;;10.90;99.90;;;;;;4926835;29;20527;-48
2020/12/06 11:38:38;;;;;;;9.80;7.17;;;11.00;99.90;;;;;;4917062;29;20437;-48
2020/12/06 11:41:05;;;;;;;9.13;6.60;;;11.00;99.90;;;;;;4915952;29;20475;-48
2020/12/06 11:43:32;;;;;;;8.83;5.73;;;10.90;99.90;;;;;;4916749;29;20429;-46
2020/12/06 11:46:00;;;;;;;11.70;7.30;;;10.90;99.90;;;;;;4916856;29;20537;-44
2020/12/06 11:48:29;;;;;;;12.43;6.87;;;10.90;99.90;;;;;;4898306;29;20464;-48
2020/12/06 11:50:56;;;;;;;14.63;6.67;;;10.90;99.90;;;;;;4907287;29;20454;-48
2020/12/06 11:53:23;;;;;;;8.30;5.43;;;10.90;99.90;;;;;;4920938;29;20400;-47
2020/12/06 11:55:50;;;;;;;10.00;7.77;;;11.00;99.90;;;;;;4919808;29;20445;-45
2020/12/06 11:58:17;;;;;;;7.40;5.60;;;11.00;99.90;;;;;;4916640;29;20917;-46
2020/12/06 12:00:45;;;;;;;11.20;7.80;;;11.00;99.90;;;;;;4916618;29;20899;-44
2020/12/06 12:03:12;;;;;;;10.77;7.80;;;11.00;99.90;;;;;;4916450;29;20436;-49
2020/12/06 12:05:39;;;;;;;7.90;7.00;;;11.10;99.90;;;;;;4916600;29;20870;-46
2020/12/06 12:08:07;;;;;;;12.13;7.03;;;11.30;99.90;;;;;;4915585;29;20400;-48
2020/12/06 12:10:34;;;;;;;9.20;7.03;;;11.30;99.90;;;;;;4915948;29;20393;-47
2020/12/06 12:13:02;;;;;;;10.80;6.60;;;11.40;99.90;;;;;;4915403;29;20459;-44
2020/12/06 12:15:29;;;;;;;9.03;6.20;;;11.40;99.90;;;;;;4915744;29;20456;-50
2020/12/06 12:17:56;;;;;;;12.10;6.60;;;11.50;99.90;;;;;;4915260;29;20543;-50
2020/12/06 12:20:24;;;;;;;7.37;6.50;;;11.50;99.90;;;;;;4915318;29;20416;-50
2020/12/06 12:22:52;;;;;;;10.30;6.50;;;11.60;99.90;;;;;;4929526;29;20421;-50
2020/12/06 12:25:20;;;;;;;7.00;5.27;;;11.60;99.90;;;;;;4916190;29;20432;-48
2020/12/06 12:27:47;;;;;;;8.90;7.20;;;11.60;99.90;;;;;;4920996;29;20785;-45
2020/12/06 12:30:14;;;;;;;12.13;7.23;;;11.60;99.90;;;;;;4934251;29;20418;-46
2020/12/06 12:32:41;;;;;;;8.07;6.73;;;11.50;99.90;;;;;;4933795;29;20426;-51
2020/12/06 12:35:09;;;;;;;9.80;6.73;;;11.50;99.90;;;;;;4934519;29;20419;-46
2020/12/06 12:37:36;;;;;;;7.63;6.50;;;11.50;99.90;;;;;;4929683;29;20419;-54
2020/12/06 12:40:04;;;;;;;8.63;6.67;;;11.50;99.90;;;;;;4915677;29;20433;-51
2020/12/06 12:42:31;;;;;;;7.90;6.70;;;11.50;99.90;;;;;;4925122;29;20924;-51
2020/12/06 12:44:58;;;;;;;9.33;7.43;;;11.50;99.90;;;;;;4921013;29;20443;-46
2020/12/06 12:47:25;;;;;;;7.30;5.90;;;11.50;99.90;;;;;;4914121;29;20882;-48
2020/12/06 12:49:52;;;;;;;8.40;6.07;;;11.50;99.90;;;;;;4915667;29;20440;-48